PWSweather.com
Personal Weather Stations
Station Observations
MADWEATHER
MadeiraPT

MadeiraPT

Lat: 32.735, Lon: -17.194

Elevation: 1063

Station Type: Davis VantagePro2

Latest ConditionsUpdated 8:40:01 PM GMT Monday, Sep 23, 2019
Currently Today's Max Today's Min Today's Average
Temperature 68.5°F20.3°C 76.6°F24.8°C 63.9°F17.7°C 69.4°F20.8°C
Dew Point 58.3°F14.6°C 62.3°F16.8°C 52.5°F11.4°C 58.0°F14.4°C
Winds Calm Calm 10.4 mph -16.7 kmh - - 3.7 mph 6.0 kmh
Wind Gusts -- 12.7 mph20.4 kmh - -
Humidity 70% 79% 44% 68%
Pressure 30.17 in1021.7 mb 30.18 in1022.0 mb 30.10 in1019.3 mb -
Hour Temp Dew Point Humidity Winds Wind Gusts Pressure Precip Precip Rate Daily Precip Total
08:40 PM 68.5°F20.3°C 58.3°F14.6°C 70% Calm Calm -- 30.17 in1021.7 mb - 0.00 in0.0 mm 0.00 in0.0 mm
08:30 PM 68.9°F20.5°C 58.7°F14.8°C 70% Calm Calm -- 30.16 in1021.3 mb - 0.00 in0.0 mm 0.00 in0.0 mm
08:20 PM 69.1°F20.6°C 58.9°F14.9°C 70% Calm Calm -- 30.16 in1021.3 mb - 0.00 in0.0 mm 0.00 in0.0 mm
08:10 PM 69.2°F20.7°C 59.0°F15.0°C 70% Calm Calm -- 30.16 in1021.3 mb - 0.00 in0.0 mm 0.00 in0.0 mm
08:00 PM 69.2°F20.7°C 59.0°F15.0°C 70% Calm Calm -- 30.16 in1021.3 mb - 0.00 in0.0 mm 0.00 in0.0 mm
07:50 PM 69.3°F20.7°C 58.7°F14.8°C 69% Calm Calm -- 30.16 in1021.3 mb - 0.00 in0.0 mm 0.00 in0.0 mm
07:40 PM 69.6°F20.9°C 59.0°F15.0°C 69% 1.2 mph SSE1.9 kmh SSE 2.3 mph3.7 kmh 30.16 in1021.3 mb - 0.00 in0.0 mm 0.00 in0.0 mm
07:30 PM 69.7°F20.9°C 59.1°F15.1°C 69% 2.3 mph SSE3.7 kmh SSE 3.5 mph5.6 kmh 30.16 in1021.3 mb - 0.00 in0.0 mm 0.00 in0.0 mm
07:20 PM 70.0°F21.1°C 58.9°F14.9°C 68% 3.5 mph SSE5.6 kmh SSE 3.5 mph5.6 kmh 30.16 in1021.3 mb - 0.00 in0.0 mm 0.00 in0.0 mm
07:10 PM 70.1°F21.2°C 59.0°F15.0°C 68% 3.5 mph SSE5.6 kmh SSE 4.6 mph7.4 kmh 30.16 in1021.3 mb - 0.00 in0.0 mm 0.00 in0.0 mm
07:00 PM 70.2°F21.2°C 59.1°F15.1°C 68% 2.3 mph SSE3.7 kmh SSE 3.5 mph5.6 kmh 30.15 in1021.0 mb - 0.00 in0.0 mm 0.00 in0.0 mm
06:50 PM 70.4°F21.3°C 58.9°F14.9°C 67% 4.6 mph SSE7.4 kmh SSE 4.6 mph7.4 kmh 30.16 in1021.3 mb - 0.00 in0.0 mm 0.00 in0.0 mm
06:40 PM 70.4°F21.3°C 58.9°F14.9°C 67% 4.6 mph SSE7.4 kmh SSE 5.8 mph9.3 kmh 30.16 in1021.3 mb - 0.00 in0.0 mm 0.00 in0.0 mm
06:30 PM 70.8°F21.6°C 59.3°F15.2°C 67% 3.5 mph SSE5.6 kmh SSE 3.5 mph5.6 kmh 30.15 in1021.0 mb - 0.00 in0.0 mm 0.00 in0.0 mm
06:20 PM 70.8°F21.6°C 58.9°F14.9°C 66% 2.3 mph SSE3.7 kmh SSE 3.5 mph5.6 kmh 30.15 in1021.0 mb - 0.00 in0.0 mm 0.00 in0.0 mm
06:10 PM 71.0°F21.7°C 59.5°F15.3°C 67% 4.6 mph SSE7.4 kmh SSE 5.8 mph9.3 kmh 30.15 in1021.0 mb - 0.00 in0.0 mm 0.00 in0.0 mm
06:00 PM 71.1°F21.7°C 59.2°F15.1°C 66% 4.6 mph SSE7.4 kmh SSE 4.6 mph7.4 kmh 30.15 in1021.0 mb - 0.00 in0.0 mm 0.00 in0.0 mm
05:50 PM 71.2°F21.8°C 59.3°F15.2°C 66% 6.9 mph SSE11.1 kmh SSE 10.4 mph16.7 kmh 30.15 in1021.0 mb - 0.00 in0.0 mm 0.00 in0.0 mm
05:40 PM 71.0°F21.7°C 59.5°F15.3°C 67% 5.8 mph SSE9.3 kmh SSE 6.9 mph11.1 kmh 30.15 in1021.0 mb - 0.00 in0.0 mm 0.00 in0.0 mm
05:30 PM 71.2°F21.8°C 58.8°F14.9°C 65% 5.8 mph SSE9.3 kmh SSE 5.8 mph9.3 kmh 30.15 in1021.0 mb - 0.00 in0.0 mm 0.00 in0.0 mm
05:20 PM 71.5°F21.9°C 59.1°F15.1°C 65% 3.5 mph SSE5.6 kmh SSE 5.8 mph9.3 kmh 30.15 in1021.0 mb - 0.00 in0.0 mm 0.00 in0.0 mm
05:10 PM 71.4°F21.9°C 58.6°F14.8°C 64% 4.6 mph SSE7.4 kmh SSE 6.9 mph11.1 kmh 30.14 in1020.7 mb - 0.00 in0.0 mm 0.00 in0.0 mm
05:00 PM 71.5°F21.9°C 58.6°F14.8°C 64% 6.9 mph SSE11.1 kmh SSE 10.4 mph16.7 kmh 30.15 in1021.0 mb - 0.00 in0.0 mm 0.00 in0.0 mm
04:50 PM 71.7°F22.1°C 58.9°F14.9°C 64% 4.6 mph SSE7.4 kmh SSE 9.2 mph14.8 kmh 30.14 in1020.7 mb - 0.00 in0.0 mm 0.00 in0.0 mm
04:40 PM 72.0°F22.2°C 58.8°F14.9°C 63% 4.6 mph SSE7.4 kmh SSE 10.4 mph16.7 kmh 30.14 in1020.7 mb - 0.00 in0.0 mm 0.00 in0.0 mm
04:30 PM 72.1°F22.3°C 58.4°F14.7°C 62% 5.8 mph SSE9.3 kmh SSE 5.8 mph9.3 kmh 30.13 in1020.3 mb - 0.00 in0.0 mm 0.00 in0.0 mm
04:20 PM 72.6°F22.6°C 57.5°F14.2°C 59% 5.8 mph SSE9.3 kmh SSE 11.5 mph18.5 kmh 30.14 in1020.7 mb - 0.00 in0.0 mm 0.00 in0.0 mm
04:10 PM 72.5°F22.5°C 58.7°F14.8°C 62% 8.1 mph S13.0 kmh S 11.5 mph18.5 kmh 30.14 in1020.7 mb - 0.00 in0.0 mm 0.00 in0.0 mm
04:00 PM 72.8°F22.7°C 59.5°F15.3°C 63% 5.8 mph S9.3 kmh S 10.4 mph16.7 kmh 30.14 in1020.7 mb - 0.00 in0.0 mm 0.00 in0.0 mm
03:50 PM 72.0°F22.2°C 58.7°F14.8°C 63% 6.9 mph S11.1 kmh S 10.4 mph16.7 kmh 30.14 in1020.7 mb - 0.00 in0.0 mm 0.00 in0.0 mm
03:40 PM 72.4°F22.4°C 59.1°F15.1°C 63% 6.9 mph S11.1 kmh S 11.5 mph18.5 kmh 30.14 in1020.7 mb - 0.00 in0.0 mm 0.00 in0.0 mm
03:30 PM 73.1°F22.8°C 59.8°F15.4°C 63% 5.8 mph S9.3 kmh S 10.4 mph16.7 kmh 30.14 in1020.7 mb - 0.00 in0.0 mm 0.00 in0.0 mm
03:20 PM 72.3°F22.4°C 58.1°F14.5°C 61% 8.1 mph S13.0 kmh S 10.4 mph16.7 kmh 30.14 in1020.7 mb - 0.00 in0.0 mm 0.00 in0.0 mm
03:10 PM 72.4°F22.4°C 59.1°F15.1°C 63% 8.1 mph S13.0 kmh S 11.5 mph18.5 kmh 30.14 in1020.7 mb - 0.00 in0.0 mm 0.00 in0.0 mm
03:00 PM 73.6°F23.1°C 59.7°F15.4°C 62% 8.1 mph S13.0 kmh S 11.5 mph18.5 kmh 30.14 in1020.7 mb - 0.00 in0.0 mm 0.00 in0.0 mm
02:50 PM 73.1°F22.8°C 59.3°F15.2°C 62% 9.2 mph S14.8 kmh S 12.7 mph20.4 kmh 30.14 in1020.7 mb - 0.00 in0.0 mm 0.00 in0.0 mm
02:40 PM 73.5°F23.1°C 56.8°F13.8°C 56% 6.9 mph S11.1 kmh S 9.2 mph14.8 kmh 30.14 in1020.7 mb - 0.00 in0.0 mm 0.00 in0.0 mm
02:30 PM 74.2°F23.4°C 54.4°F12.4°C 50% 10.4 mph S16.7 kmh S 12.7 mph20.4 kmh 30.14 in1020.7 mb - 0.00 in0.0 mm 0.00 in0.0 mm
02:20 PM 74.8°F23.8°C 54.9°F12.7°C 50% 9.2 mph S14.8 kmh S 11.5 mph18.5 kmh 30.14 in1020.7 mb - 0.00 in0.0 mm 0.00 in0.0 mm
02:10 PM 76.0°F24.4°C 52.5°F11.4°C 44% 6.9 mph S11.1 kmh S 12.7 mph20.4 kmh 30.15 in1021.0 mb - 0.00 in0.0 mm 0.00 in0.0 mm
02:00 PM 75.5°F24.2°C 54.4°F12.4°C 48% 6.9 mph SSW11.1 kmh SSW 11.5 mph18.5 kmh 30.14 in1020.7 mb - 0.00 in0.0 mm 0.00 in0.0 mm
01:50 PM 75.3°F24.1°C 53.1°F11.7°C 46% 6.9 mph SSW11.1 kmh SSW 11.5 mph18.5 kmh 30.15 in1021.0 mb - 0.00 in0.0 mm 0.00 in0.0 mm
01:40 PM 75.5°F24.2°C 54.4°F12.4°C 48% 9.2 mph SW14.8 kmh SW 11.5 mph18.5 kmh 30.15 in1021.0 mb - 0.00 in0.0 mm 0.00 in0.0 mm
01:30 PM 74.1°F23.4°C 55.4°F13.0°C 52% 6.9 mph WSW11.1 kmh WSW 10.4 mph16.7 kmh 30.15 in1021.0 mb - 0.00 in0.0 mm 0.00 in0.0 mm
01:20 PM 75.1°F23.9°C 56.8°F13.8°C 53% 4.6 mph WSW7.4 kmh WSW 9.2 mph14.8 kmh 30.15 in1021.0 mb - 0.00 in0.0 mm 0.00 in0.0 mm
01:10 PM 75.1°F23.9°C 56.2°F13.4°C 52% 4.6 mph WSW7.4 kmh WSW 6.9 mph11.1 kmh 30.15 in1021.0 mb - 0.00 in0.0 mm 0.00 in0.0 mm
01:00 PM 76.2°F24.6°C 55.6°F13.1°C 49% 6.9 mph WSW11.1 kmh WSW 10.4 mph16.7 kmh 30.16 in1021.3 mb - 0.00 in0.0 mm 0.00 in0.0 mm
12:50 PM 75.4°F24.1°C 55.5°F13.1°C 50% 4.6 mph WSW7.4 kmh WSW 6.9 mph11.1 kmh 30.16 in1021.3 mb - 0.00 in0.0 mm 0.00 in0.0 mm
12:40 PM 76.6°F24.8°C 56.6°F13.7°C 50% 4.6 mph WSW7.4 kmh WSW 11.5 mph18.5 kmh 30.16 in1021.3 mb - 0.00 in0.0 mm 0.00 in0.0 mm
12:30 PM 76.6°F24.8°C 54.9°F12.7°C 47% 6.9 mph WSW11.1 kmh WSW 6.9 mph11.1 kmh 30.17 in1021.7 mb - 0.00 in0.0 mm 0.00 in0.0 mm
12:20 PM 75.7°F24.3°C 57.4°F14.1°C 53% 9.2 mph WSW14.8 kmh WSW 11.5 mph18.5 kmh 30.17 in1021.7 mb - 0.00 in0.0 mm 0.00 in0.0 mm
12:10 PM 76.0°F24.4°C 56.6°F13.7°C 51% 5.8 mph WSW9.3 kmh WSW 6.9 mph11.1 kmh 30.17 in1021.7 mb - 0.00 in0.0 mm 0.00 in0.0 mm
12:00 PM 76.5°F24.7°C 57.6°F14.2°C 52% 5.8 mph WSW9.3 kmh WSW 11.5 mph18.5 kmh 30.18 in1022.0 mb - 0.00 in0.0 mm 0.00 in0.0 mm
11:50 AM 75.8°F24.3°C 56.4°F13.6°C 51% 6.9 mph WSW11.1 kmh WSW 12.7 mph20.4 kmh 30.17 in1021.7 mb - 0.00 in0.0 mm 0.00 in0.0 mm
11:40 AM 75.5°F24.2°C 56.6°F13.7°C 52% 5.8 mph WSW9.3 kmh WSW 6.9 mph11.1 kmh 30.18 in1022.0 mb - 0.00 in0.0 mm 0.00 in0.0 mm
11:30 AM 75.2°F24.0°C 56.4°F13.6°C 52% 6.9 mph WSW11.1 kmh WSW 10.4 mph16.7 kmh 30.18 in1022.0 mb - 0.00 in0.0 mm 0.00 in0.0 mm
11:20 AM 74.5°F23.6°C 60.2°F15.7°C 61% 5.8 mph WSW9.3 kmh WSW 11.5 mph18.5 kmh 30.18 in1022.0 mb - 0.00 in0.0 mm 0.00 in0.0 mm
11:10 AM 73.1°F22.8°C 59.8°F15.4°C 63% 8.1 mph WSW13.0 kmh WSW 11.5 mph18.5 kmh 30.18 in1022.0 mb - 0.00 in0.0 mm 0.00 in0.0 mm
11:00 AM 72.9°F22.7°C 61.3°F16.3°C 67% 6.9 mph WSW11.1 kmh WSW 11.5 mph18.5 kmh 30.18 in1022.0 mb - 0.00 in0.0 mm 0.00 in0.0 mm
10:50 AM 74.0°F23.3°C 61.9°F16.6°C 66% 5.8 mph WSW9.3 kmh WSW 9.2 mph14.8 kmh 30.18 in1022.0 mb - 0.00 in0.0 mm 0.00 in0.0 mm
10:40 AM 73.2°F22.9°C 62.0°F16.7°C 68% 8.1 mph WSW13.0 kmh WSW 11.5 mph18.5 kmh 30.18 in1022.0 mb - 0.00 in0.0 mm 0.00 in0.0 mm
10:30 AM 73.1°F22.8°C 61.9°F16.6°C 68% 5.8 mph WSW9.3 kmh WSW 10.4 mph16.7 kmh 30.18 in1022.0 mb - 0.00 in0.0 mm 0.00 in0.0 mm
10:20 AM 72.3°F22.4°C 61.2°F16.2°C 68% 4.6 mph WSW7.4 kmh WSW 11.5 mph18.5 kmh 30.18 in1022.0 mb - 0.00 in0.0 mm 0.00 in0.0 mm
10:10 AM 72.5°F22.5°C 61.7°F16.5°C 69% 4.6 mph WSW7.4 kmh WSW 5.8 mph9.3 kmh 30.18 in1022.0 mb - 0.00 in0.0 mm 0.00 in0.0 mm
10:00 AM 72.4°F22.4°C 61.7°F16.5°C 69% 4.6 mph WSW7.4 kmh WSW 9.2 mph14.8 kmh 30.17 in1021.7 mb - 0.00 in0.0 mm 0.00 in0.0 mm
09:50 AM 72.3°F22.4°C 61.6°F16.4°C 69% 4.6 mph WSW7.4 kmh WSW 9.2 mph14.8 kmh 30.17 in1021.7 mb - 0.00 in0.0 mm 0.00 in0.0 mm
09:40 AM 71.9°F22.2°C 61.6°F16.4°C 70% 3.5 mph WSW5.6 kmh WSW 4.6 mph7.4 kmh 30.16 in1021.3 mb - 0.00 in0.0 mm 0.00 in0.0 mm
09:30 AM 71.0°F21.7°C 61.1°F16.2°C 71% 5.8 mph WSW9.3 kmh WSW 9.2 mph14.8 kmh 30.16 in1021.3 mb - 0.00 in0.0 mm 0.00 in0.0 mm
09:20 AM 71.0°F21.7°C 61.9°F16.6°C 73% 6.9 mph WSW11.1 kmh WSW 9.2 mph14.8 kmh 30.16 in1021.3 mb - 0.00 in0.0 mm 0.00 in0.0 mm
09:10 AM 71.0°F21.7°C 61.9°F16.6°C 73% 2.3 mph WSW3.7 kmh WSW 5.8 mph9.3 kmh 30.15 in1021.0 mb - 0.00 in0.0 mm 0.00 in0.0 mm
09:00 AM 70.6°F21.4°C 62.3°F16.8°C 75% 3.5 mph WSW5.6 kmh WSW 3.5 mph5.6 kmh 30.15 in1021.0 mb - 0.00 in0.0 mm 0.00 in0.0 mm
08:50 AM 70.5°F21.4°C 62.2°F16.8°C 75% 2.3 mph WSW3.7 kmh WSW 3.5 mph5.6 kmh 30.15 in1021.0 mb - 0.00 in0.0 mm 0.00 in0.0 mm
08:40 AM 70.0°F21.1°C 61.7°F16.5°C 75% 1.2 mph WSW1.9 kmh WSW 4.6 mph7.4 kmh 30.15 in1021.0 mb - 0.00 in0.0 mm 0.00 in0.0 mm
08:30 AM 69.5°F20.8°C 61.6°F16.4°C 76% 1.2 mph WSW1.9 kmh WSW 3.5 mph5.6 kmh 30.14 in1020.7 mb - 0.00 in0.0 mm 0.00 in0.0 mm
08:20 AM 68.8°F20.4°C 61.3°F16.3°C 77% Calm Calm 2.3 mph3.7 kmh 30.14 in1020.7 mb - 0.00 in0.0 mm 0.00 in0.0 mm
08:10 AM 68.2°F20.1°C 60.3°F15.7°C 76% 3.5 mph WSW5.6 kmh WSW 5.8 mph9.3 kmh 30.13 in1020.3 mb - 0.00 in0.0 mm 0.00 in0.0 mm
08:00 AM 67.4°F19.7°C 60.0°F15.6°C 77% 1.2 mph WSW1.9 kmh WSW 3.5 mph5.6 kmh 30.13 in1020.3 mb - 0.00 in0.0 mm 0.00 in0.0 mm
07:50 AM 66.2°F19.0°C 59.1°F15.1°C 78% 1.2 mph WSW1.9 kmh WSW 3.5 mph5.6 kmh 30.13 in1020.3 mb - 0.00 in0.0 mm 0.00 in0.0 mm
07:40 AM 64.7°F18.2°C 57.3°F14.1°C 77% Calm Calm 2.3 mph3.7 kmh 30.13 in1020.3 mb - 0.00 in0.0 mm 0.00 in0.0 mm
07:30 AM 64.5°F18.1°C 57.5°F14.2°C 78% 1.2 mph WSW1.9 kmh WSW 3.5 mph5.6 kmh 30.13 in1020.3 mb - 0.00 in0.0 mm 0.00 in0.0 mm
07:20 AM 64.6°F18.1°C 58.0°F14.4°C 79% 1.2 mph WSW1.9 kmh WSW 2.3 mph3.7 kmh 30.13 in1020.3 mb - 0.00 in0.0 mm 0.00 in0.0 mm
07:10 AM 64.6°F18.1°C 57.9°F14.4°C 79% 1.2 mph WSW1.9 kmh WSW 2.3 mph3.7 kmh 30.13 in1020.3 mb - 0.00 in0.0 mm 0.00 in0.0 mm
07:00 AM 64.4°F18.0°C 57.4°F14.1°C 78% Calm Calm 3.5 mph5.6 kmh 30.12 in1020.0 mb - 0.00 in0.0 mm 0.00 in0.0 mm
06:50 AM 64.4°F18.0°C 57.1°F13.9°C 77% 2.3 mph WSW3.7 kmh WSW 2.3 mph3.7 kmh 30.12 in1020.0 mb - 0.00 in0.0 mm 0.00 in0.0 mm
06:40 AM 64.4°F18.0°C 56.7°F13.7°C 76% 2.3 mph WSW3.7 kmh WSW 3.5 mph5.6 kmh 30.12 in1020.0 mb - 0.00 in0.0 mm 0.00 in0.0 mm
06:30 AM 64.5°F18.1°C 56.8°F13.8°C 76% Calm Calm 1.2 mph1.9 kmh 30.12 in1020.0 mb - 0.00 in0.0 mm 0.00 in0.0 mm
06:20 AM 64.5°F18.1°C 56.4°F13.6°C 75% 2.3 mph WSW3.7 kmh WSW 3.5 mph5.6 kmh 30.12 in1020.0 mb - 0.00 in0.0 mm 0.00 in0.0 mm
06:10 AM 64.2°F17.9°C 55.3°F12.9°C 73% 3.5 mph WSW5.6 kmh WSW 3.5 mph5.6 kmh 30.12 in1020.0 mb - 0.00 in0.0 mm 0.00 in0.0 mm
06:00 AM 64.5°F18.1°C 55.2°F12.9°C 72% 2.3 mph WSW3.7 kmh WSW 4.6 mph7.4 kmh 30.11 in1019.6 mb - 0.00 in0.0 mm 0.00 in0.0 mm
05:50 AM 64.9°F18.3°C 55.3°F12.9°C 71% 2.3 mph WSW3.7 kmh WSW 3.5 mph5.6 kmh 30.11 in1019.6 mb - 0.00 in0.0 mm 0.00 in0.0 mm
05:40 AM 64.8°F18.2°C 55.2°F12.9°C 71% 2.3 mph WSW3.7 kmh WSW 3.5 mph5.6 kmh 30.11 in1019.6 mb - 0.00 in0.0 mm 0.00 in0.0 mm
05:30 AM 64.7°F18.2°C 56.2°F13.4°C 74% Calm Calm 3.5 mph5.6 kmh 30.11 in1019.6 mb - 0.00 in0.0 mm 0.00 in0.0 mm
05:20 AM 64.5°F18.1°C 55.2°F12.9°C 72% 3.5 mph WSW5.6 kmh WSW 3.5 mph5.6 kmh 30.10 in1019.3 mb - 0.00 in0.0 mm 0.00 in0.0 mm
05:10 AM 64.5°F18.1°C 55.6°F13.1°C 73% 2.3 mph WSW3.7 kmh WSW 3.5 mph5.6 kmh 30.10 in1019.3 mb - 0.00 in0.0 mm 0.00 in0.0 mm
05:00 AM 64.5°F18.1°C 55.7°F13.2°C 73% Calm Calm -- 30.10 in1019.3 mb - 0.00 in0.0 mm 0.00 in0.0 mm
04:50 AM 64.4°F18.0°C 56.0°F13.3°C 74% Calm Calm 2.3 mph3.7 kmh 30.10 in1019.3 mb - 0.00 in0.0 mm 0.00 in0.0 mm
04:40 AM 64.3°F17.9°C 55.8°F13.2°C 74% Calm Calm 1.2 mph1.9 kmh 30.10 in1019.3 mb - 0.00 in0.0 mm 0.00 in0.0 mm
04:30 AM 64.2°F17.9°C 55.7°F13.2°C 74% Calm Calm 1.2 mph1.9 kmh 30.10 in1019.3 mb - 0.00 in0.0 mm 0.00 in0.0 mm
04:20 AM 64.1°F17.8°C 55.6°F13.1°C 74% 2.3 mph WSW3.7 kmh WSW 3.5 mph5.6 kmh 30.10 in1019.3 mb - 0.00 in0.0 mm 0.00 in0.0 mm
04:10 AM 64.1°F17.8°C 55.7°F13.2°C 74% Calm Calm 2.3 mph3.7 kmh 30.10 in1019.3 mb - 0.00 in0.0 mm 0.00 in0.0 mm
04:00 AM 64.0°F17.8°C 55.9°F13.3°C 75% 1.2 mph WSW1.9 kmh WSW 2.3 mph3.7 kmh 30.10 in1019.3 mb - 0.00 in0.0 mm 0.00 in0.0 mm
03:50 AM 63.9°F17.7°C 55.4°F13.0°C 74% 2.3 mph WSW3.7 kmh WSW 3.5 mph5.6 kmh 30.10 in1019.3 mb - 0.00 in0.0 mm 0.00 in0.0 mm
03:40 AM 64.0°F17.8°C 55.5°F13.1°C 74% Calm Calm 2.3 mph3.7 kmh 30.11 in1019.6 mb - 0.00 in0.0 mm 0.00 in0.0 mm
03:30 AM 64.2°F17.9°C 56.1°F13.4°C 75% 2.3 mph WSW3.7 kmh WSW 3.5 mph5.6 kmh 30.11 in1019.6 mb - 0.00 in0.0 mm 0.00 in0.0 mm
03:20 AM 64.3°F17.9°C 55.8°F13.2°C 74% 1.2 mph WSW1.9 kmh WSW 3.5 mph5.6 kmh 30.11 in1019.6 mb - 0.00 in0.0 mm 0.00 in0.0 mm
03:10 AM 64.5°F18.1°C 56.0°F13.3°C 74% 2.3 mph WSW3.7 kmh WSW 3.5 mph5.6 kmh 30.11 in1019.6 mb - 0.00 in0.0 mm 0.00 in0.0 mm
03:00 AM 64.6°F18.1°C 56.5°F13.6°C 75% 1.2 mph WSW1.9 kmh WSW 3.5 mph5.6 kmh 30.11 in1019.6 mb - 0.00 in0.0 mm 0.00 in0.0 mm
02:50 AM 64.6°F18.1°C 56.8°F13.8°C 76% 2.3 mph WSW3.7 kmh WSW 3.5 mph5.6 kmh 30.11 in1019.6 mb - 0.00 in0.0 mm 0.00 in0.0 mm
02:40 AM 64.4°F18.0°C 56.3°F13.5°C 75% 1.2 mph WSW1.9 kmh WSW 3.5 mph5.6 kmh 30.11 in1019.6 mb - 0.00 in0.0 mm 0.00 in0.0 mm
02:30 AM 64.7°F18.2°C 56.5°F13.6°C 75% 2.3 mph WSW3.7 kmh WSW 3.5 mph5.6 kmh 30.11 in1019.6 mb - 0.00 in0.0 mm 0.00 in0.0 mm
02:20 AM 64.7°F18.2°C 56.9°F13.8°C 76% 1.2 mph WSW1.9 kmh WSW 3.5 mph5.6 kmh 30.11 in1019.6 mb - 0.00 in0.0 mm 0.00 in0.0 mm
02:10 AM 64.5°F18.1°C 56.4°F13.6°C 75% 2.3 mph WSW3.7 kmh WSW 3.5 mph5.6 kmh 30.12 in1020.0 mb - 0.00 in0.0 mm 0.00 in0.0 mm
02:00 AM 64.6°F18.1°C 56.5°F13.6°C 75% 2.3 mph WSW3.7 kmh WSW 3.5 mph5.6 kmh 30.12 in1020.0 mb - 0.00 in0.0 mm 0.00 in0.0 mm
01:50 AM 65.0°F18.3°C 57.6°F14.2°C 77% 2.3 mph WSW3.7 kmh WSW 3.5 mph5.6 kmh 30.12 in1020.0 mb - 0.00 in0.0 mm 0.00 in0.0 mm
01:40 AM 65.0°F18.3°C 57.7°F14.3°C 77% 2.3 mph WSW3.7 kmh WSW 3.5 mph5.6 kmh 30.12 in1020.0 mb - 0.00 in0.0 mm 0.00 in0.0 mm
01:30 AM 65.0°F18.3°C 58.0°F14.4°C 78% 2.3 mph WSW3.7 kmh WSW 3.5 mph5.6 kmh 30.12 in1020.0 mb - 0.00 in0.0 mm 0.00 in0.0 mm
01:20 AM 65.1°F18.4°C 58.1°F14.5°C 78% 2.3 mph WSW3.7 kmh WSW 3.5 mph5.6 kmh 30.13 in1020.3 mb - 0.00 in0.0 mm 0.00 in0.0 mm
01:10 AM 65.2°F18.4°C 58.1°F14.5°C 78% 1.2 mph WSW1.9 kmh WSW 3.5 mph5.6 kmh 30.12 in1020.0 mb - 0.00 in0.0 mm 0.00 in0.0 mm
01:00 AM 65.0°F18.3°C 58.0°F14.4°C 78% 2.3 mph WSW3.7 kmh WSW 3.5 mph5.6 kmh 30.13 in1020.3 mb - 0.00 in0.0 mm 0.00 in0.0 mm
12:50 AM 65.4°F18.6°C 58.4°F14.7°C 78% 2.3 mph WSW3.7 kmh WSW 3.5 mph5.6 kmh 30.13 in1020.3 mb - 0.00 in0.0 mm 0.00 in0.0 mm
12:40 AM 65.5°F18.6°C 58.5°F14.7°C 78% 2.3 mph WSW3.7 kmh WSW 3.5 mph5.6 kmh 30.13 in1020.3 mb - 0.00 in0.0 mm 0.00 in0.0 mm
12:30 AM 65.5°F18.6°C 58.1°F14.5°C 77% 2.3 mph WSW3.7 kmh WSW 3.5 mph5.6 kmh 30.13 in1020.3 mb - 0.00 in0.0 mm 0.00 in0.0 mm
12:20 AM 65.7°F18.7°C 58.3°F14.6°C 77% 2.3 mph WSW3.7 kmh WSW 3.5 mph5.6 kmh 30.13 in1020.3 mb - 0.00 in0.0 mm 0.00 in0.0 mm
12:10 AM 66.1°F18.9°C 58.3°F14.6°C 76% 2.3 mph WSW3.7 kmh WSW 3.5 mph5.6 kmh 30.13 in1020.3 mb - 0.00 in0.0 mm 0.00 in0.0 mm
12:00 AM 66.3°F19.1°C 58.1°F14.5°C 75% 2.3 mph WSW3.7 kmh WSW 3.5 mph5.6 kmh 30.13 in1020.3 mb - 0.00 in0.0 mm 0.00 in0.0 mm